createdAt,value
2016-09-26T00:00:30.414Z,57.37
2016-09-26T00:01:30.096Z,57.07
2016-09-26T00:02:30.379Z,57.37
2016-09-26T00:03:30.361Z,57.65
2016-09-26T00:04:30.340Z,57.65
2016-09-26T00:05:30.335Z,57.65
2016-09-26T00:06:30.312Z,57.65
2016-09-26T00:07:30.298Z,58.23
2016-09-26T00:08:30.291Z,57.75
2016-09-26T00:09:30.268Z,57.75
2016-09-26T00:10:30.248Z,57.94
2016-09-26T00:11:30.235Z,57.85
2016-09-26T00:12:30.220Z,58.04
2016-09-26T00:13:30.201Z,58.04
2016-09-26T00:14:30.186Z,57.65
2016-09-26T00:15:30.187Z,57.94
2016-09-26T00:16:30.149Z,57.75
2016-09-26T00:17:29.834Z,57.75
2016-09-26T00:18:30.116Z,57.85
2016-09-26T00:19:30.099Z,57.94
2016-09-26T00:20:30.096Z,57.75
2016-09-26T00:21:30.070Z,57.75
2016-09-26T00:22:30.055Z,57.85
2016-09-26T00:23:30.037Z,57.75
2016-09-26T00:24:30.022Z,57.85
2016-09-26T00:25:30.005Z,57.75
2016-09-26T00:26:29.994Z,58.23
2016-09-26T00:27:29.973Z,57.56
2016-09-26T00:28:29.957Z,58.04
2016-09-26T00:29:29.940Z,58.04
2016-09-26T00:30:29.926Z,57.94
2016-09-26T00:31:29.911Z,58.14
2016-09-26T00:32:29.900Z,58.14
2016-09-26T00:33:29.879Z,58.04
2016-09-26T00:34:29.865Z,58.23
2016-09-26T00:35:29.842Z,58.04
2016-09-26T00:36:29.833Z,57.94
2016-09-26T00:37:29.820Z,58.14
2016-09-26T00:38:29.795Z,57.94
2016-09-26T00:39:29.784Z,57.94
2016-09-26T00:40:29.763Z,58.04
2016-09-26T00:41:29.752Z,58.23
2016-09-26T00:42:29.738Z,58.14
2016-09-26T00:43:29.706Z,58.04
2016-09-26T00:44:29.698Z,58.14
2016-09-26T00:45:29.783Z,57.94
2016-09-26T00:46:29.667Z,58.72
2016-09-26T00:47:29.647Z,58.52
2016-09-26T00:48:29.633Z,58.81
2016-09-26T00:49:29.619Z,58.81
2016-09-26T00:50:29.613Z,58.14
2016-09-26T00:51:29.589Z,57.85
2016-09-26T00:52:29.564Z,58.33
2016-09-26T00:53:29.249Z,58.81
2016-09-26T00:54:29.543Z,58.33
2016-09-26T00:55:29.520Z,58.33
2016-09-26T00:56:29.508Z,58.52
2016-09-26T00:57:29.491Z,58.72
2016-09-26T00:58:29.476Z,58.52
2016-09-26T00:59:29.459Z,58.52
2016-09-26T01:00:29.439Z,58.52
2016-09-26T01:01:29.424Z,58.33
2016-09-26T01:02:29.418Z,58.72
2016-09-26T01:03:29.391Z,58.62
2016-09-26T01:04:29.375Z,58.52
2016-09-26T01:05:29.359Z,58.42
2016-09-26T01:06:29.350Z,58.42
2016-09-26T01:07:29.024Z,58.72
2016-09-26T01:08:29.309Z,58.42
2016-09-26T01:09:28.991Z,58.91
2016-09-26T01:10:29.282Z,58.33
2016-09-26T01:11:29.267Z,58.62
2016-09-26T01:12:29.246Z,58.62
2016-09-26T01:13:29.229Z,58.33
2016-09-26T01:14:28.913Z,58.52
2016-09-26T01:15:29.201Z,58.62
2016-09-26T01:16:29.184Z,58.52
2016-09-26T01:17:29.166Z,58.72
2016-09-26T01:18:29.149Z,58.72
2016-09-26T01:19:29.130Z,58.52
2016-09-26T01:20:29.121Z,58.62
2016-09-26T01:21:29.113Z,58.91
2016-09-26T01:22:29.084Z,58.42
2016-09-26T01:23:29.069Z,58.33
2016-09-26T01:24:29.052Z,58.52
2016-09-26T01:25:29.035Z,58.33
2016-09-26T01:26:29.022Z,58.81
2016-09-26T01:27:29.005Z,58.91
2016-09-26T01:28:28.990Z,58.81
2016-09-26T01:29:28.972Z,58.69
2016-09-26T01:30:28.963Z,58.72
2016-09-26T01:31:28.943Z,58.72
2016-09-26T01:32:28.622Z,58.91
2016-09-26T01:33:28.907Z,59.1
2016-09-26T01:34:28.892Z,58.81
2016-09-26T01:35:28.873Z,59.1
2016-09-26T01:36:28.860Z,58.72
2016-09-26T01:37:28.845Z,58.91
2016-09-26T01:38:28.825Z,59.2
2016-09-26T01:39:28.809Z,59
2016-09-26T01:40:28.791Z,59.48
2016-09-26T01:41:28.776Z,58.78
2016-09-26T01:42:28.765Z,58.78
2016-09-26T01:43:28.744Z,58.91
2016-09-26T01:44:28.736Z,58.72
2016-09-26T01:45:28.713Z,59.2
2016-09-26T01:46:28.700Z,58.78
2016-09-26T01:47:28.682Z,58.97
2016-09-26T01:48:28.662Z,59
2016-09-26T01:49:28.651Z,59.07
2016-09-26T01:50:28.334Z,58.69
2016-09-26T01:51:28.616Z,59.1
2016-09-26T01:52:28.607Z,58.81
2016-09-26T01:53:28.582Z,58.97
2016-09-26T01:54:28.565Z,59.07
2016-09-26T01:55:28.550Z,58.88
2016-09-26T01:56:28.533Z,58.91
2016-09-26T01:57:28.518Z,58.78
2016-09-26T01:58:28.500Z,59
2016-09-26T01:59:28.485Z,58.88
2016-09-26T02:00:28.476Z,59.39
2016-09-26T02:01:28.458Z,58.78
2016-09-26T02:02:28.438Z,59
2016-09-26T02:03:28.120Z,59.17
2016-09-26T02:04:28.410Z,58.78
2016-09-26T02:05:28.090Z,58.69
2016-09-26T02:06:28.374Z,58.88
2016-09-26T02:07:28.370Z,59.07
2016-09-26T02:08:28.352Z,58.88
2016-09-26T02:09:28.321Z,58.97
2016-09-26T02:10:28.308Z,58.81
2016-09-26T02:11:28.292Z,58.88
2016-09-26T02:12:28.279Z,59
2016-09-26T02:13:28.258Z,59.27
2016-09-26T02:14:28.254Z,59.17
2016-09-26T02:15:28.226Z,58.69
2016-09-26T02:16:28.211Z,58.88
2016-09-26T02:17:28.200Z,58.88
2016-09-26T02:18:28.185Z,58.78
2016-09-26T02:19:28.159Z,58.78
2016-09-26T02:20:28.146Z,59.17
2016-09-26T02:21:28.130Z,58.78
2016-09-26T02:22:28.114Z,58.69
2016-09-26T02:23:27.793Z,59.17
2016-09-26T02:24:28.081Z,58.78
2016-09-26T02:25:28.070Z,58.88
2016-09-26T02:26:28.049Z,59.17
2016-09-26T02:27:27.731Z,59.3
2016-09-26T02:28:28.016Z,59.36
2016-09-26T02:29:27.997Z,59.17
2016-09-26T02:30:27.983Z,59.1
2016-09-26T02:31:27.969Z,59.07
2016-09-26T02:32:27.948Z,59.75
2016-09-26T02:33:27.933Z,59.17
2016-09-26T02:34:27.917Z,59.07
2016-09-26T02:35:27.907Z,59.36
2016-09-26T02:36:27.887Z,59.27
2016-09-26T02:37:27.872Z,59.36
2016-09-26T02:38:27.853Z,58.88
2016-09-26T02:39:27.836Z,58.97
2016-09-26T02:40:27.828Z,59.17
2016-09-26T02:41:27.807Z,59.45
2016-09-26T02:42:27.785Z,59.17
2016-09-26T02:43:27.777Z,59.17
2016-09-26T02:44:27.757Z,58.97
2016-09-26T02:45:27.739Z,58.97
2016-09-26T02:46:27.722Z,59.17
2016-09-26T02:47:27.702Z,58.91
2016-09-26T02:48:27.688Z,59.2
2016-09-26T02:49:27.666Z,58.97
2016-09-26T02:50:27.658Z,59.1
2016-09-26T02:51:27.650Z,58.69
2016-09-26T02:52:27.622Z,59.17
2016-09-26T02:53:27.615Z,59.17
2016-09-26T02:54:27.588Z,59.07
2016-09-26T02:55:27.576Z,58.78
2016-09-26T02:56:27.259Z,58.88
2016-09-26T02:57:27.542Z,59.17
2016-09-26T02:58:27.523Z,59.07
2016-09-26T02:59:27.511Z,59.17
2016-09-26T03:00:27.499Z,58.88
2016-09-26T03:01:27.476Z,59.27
2016-09-26T03:02:27.463Z,58.78
2016-09-26T03:03:27.142Z,58.78
2016-09-26T03:04:27.126Z,58.78
2016-09-26T03:05:27.410Z,58.78
2016-09-26T03:06:27.397Z,58.88
2016-09-26T03:07:27.382Z,58.78
2016-09-26T03:08:27.379Z,58.88
2016-09-26T03:09:27.354Z,58.88
2016-09-26T03:10:27.329Z,58.78
2016-09-26T03:11:27.321Z,58.78
2016-09-26T03:12:27.300Z,58.97
2016-09-26T03:13:27.284Z,58.88
2016-09-26T03:14:27.263Z,58.88
2016-09-26T03:15:27.249Z,58.88
2016-09-26T03:16:27.249Z,58.78
2016-09-26T03:17:27.218Z,58.78
2016-09-26T03:18:27.202Z,58.69
2016-09-26T03:19:27.182Z,58.78
2016-09-26T03:20:27.177Z,59.07
2016-09-26T03:21:27.152Z,58.59
2016-09-26T03:22:27.136Z,58.97
2016-09-26T03:23:27.120Z,58.69
2016-09-26T03:24:27.102Z,58.97
2016-09-26T03:25:27.085Z,59.36
2016-09-26T03:26:27.073Z,58.88
2016-09-26T03:27:27.054Z,58.78
2016-09-26T03:28:27.039Z,58.97
2016-09-26T03:29:27.022Z,59.17
2016-09-26T03:30:27.008Z,58.88
2016-09-26T03:31:27.006Z,58.88
2016-09-26T03:32:26.972Z,58.78
2016-09-26T03:33:26.956Z,59.07
2016-09-26T03:34:26.944Z,59.07
2016-09-26T03:35:26.932Z,58.78
2016-09-26T03:36:26.911Z,58.78
2016-09-26T03:37:26.898Z,58.69
2016-09-26T03:38:26.882Z,58.88
2016-09-26T03:39:26.862Z,58.88
2016-09-26T03:40:26.840Z,58.69
2016-09-26T03:41:26.523Z,58.88
2016-09-26T03:42:26.809Z,58.97
2016-09-26T03:43:26.797Z,58.69
2016-09-26T03:44:26.775Z,59.17
2016-09-26T03:45:26.761Z,58.97
2016-09-26T03:46:26.749Z,58.78
2016-09-26T03:47:26.727Z,59.36
2016-09-26T03:48:26.711Z,59.36
2016-09-26T03:49:26.699Z,58.78
2016-09-26T03:50:26.680Z,58.88
2016-09-26T03:51:26.663Z,58.78
2016-09-26T03:52:26.649Z,58.88
2016-09-26T03:53:26.634Z,58.78
2016-09-26T03:54:26.614Z,58.78
2016-09-26T03:55:26.595Z,58.88
2016-09-26T03:56:26.591Z,58.78
2016-09-26T03:57:26.574Z,58.88
2016-09-26T03:58:26.544Z,58.97
2016-09-26T03:59:26.532Z,58.78
2016-09-26T04:00:26.513Z,59.27
2016-09-26T04:01:26.497Z,58.69
2016-09-26T04:02:26.480Z,58.78
2016-09-26T04:03:26.463Z,58.88
2016-09-26T04:04:26.450Z,59.07
2016-09-26T04:05:26.436Z,59.17
2016-09-26T04:06:26.415Z,58.88
2016-09-26T04:07:26.402Z,58.97
2016-09-26T04:08:26.389Z,58.88
2016-09-26T04:09:26.368Z,58.88
2016-09-26T04:10:26.350Z,58.88
2016-09-26T04:11:26.033Z,58.59
2016-09-26T04:12:26.320Z,58.69
2016-09-26T04:13:26.302Z,58.88
2016-09-26T04:14:26.286Z,58.88
2016-09-26T04:15:26.268Z,58.78
2016-09-26T04:16:26.254Z,59.17
2016-09-26T04:17:26.231Z,58.78
2016-09-26T04:18:26.220Z,58.88
2016-09-26T04:19:26.204Z,58.78
2016-09-26T04:20:26.195Z,58.69
2016-09-26T04:21:26.173Z,58.4
2016-09-26T04:22:25.861Z,58.49
2016-09-26T04:23:26.138Z,58.4
2016-09-26T04:24:26.125Z,58.49
2016-09-26T04:25:26.107Z,58.3
2016-09-26T04:26:26.095Z,58.3
2016-09-26T04:27:26.076Z,58.3
2016-09-26T04:28:26.052Z,58.69
2016-09-26T04:29:26.041Z,58.88
2016-09-26T04:30:25.722Z,58.49
2016-09-26T04:31:26.008Z,58.88
2016-09-26T04:32:25.989Z,58.4
2016-09-26T04:33:25.971Z,58.49
2016-09-26T04:34:25.955Z,58.69
2016-09-26T04:35:25.946Z,58.4
2016-09-26T04:36:25.926Z,58.59
2016-09-26T04:37:25.907Z,58.59
2016-09-26T04:38:25.890Z,58.59
2016-09-26T04:39:25.877Z,58.69
2016-09-26T04:40:25.855Z,58.4
2016-09-26T04:41:25.838Z,58.3
2016-09-26T04:42:25.825Z,58.88
2016-09-26T04:43:25.809Z,58.78
2016-09-26T04:44:25.810Z,58.69
2016-09-26T04:45:25.782Z,58.78
2016-09-26T04:46:25.458Z,58.69
2016-09-26T04:47:25.747Z,58.78
2016-09-26T04:48:25.728Z,58.59
2016-09-26T04:49:25.706Z,58.69
2016-09-26T04:50:25.694Z,58.49
2016-09-26T04:51:25.680Z,58.69
2016-09-26T04:52:25.665Z,58.59
2016-09-26T04:53:25.647Z,58.59
2016-09-26T04:54:25.334Z,58.78
2016-09-26T04:55:25.616Z,58.56
2016-09-26T04:56:25.595Z,58.65
2016-09-26T04:57:25.578Z,58.49
2016-09-26T04:58:25.560Z,58.78
2016-09-26T04:59:25.546Z,58.88
2016-09-26T05:00:25.528Z,58.78
2016-09-26T05:01:25.512Z,58.75
2016-09-26T05:02:25.494Z,58.69
2016-09-26T05:03:25.511Z,58.75
2016-09-26T05:04:25.468Z,58.75
2016-09-26T05:05:25.456Z,58.78
2016-09-26T05:06:25.425Z,58.69
2016-09-26T05:07:25.420Z,58.59
2016-09-26T05:08:25.397Z,58.69
2016-09-26T05:09:25.103Z,58.59
2016-09-26T05:10:25.364Z,58.01
2016-09-26T05:11:25.348Z,57.89
2016-09-26T05:12:25.331Z,58.11
2016-09-26T05:13:25.317Z,58.37
2016-09-26T05:14:25.301Z,58.56
2016-09-26T05:15:25.282Z,58.65
2016-09-26T05:16:25.260Z,58.47
2016-09-26T05:17:25.255Z,58.4
2016-09-26T05:18:25.233Z,57.92
2016-09-26T05:19:25.224Z,58.2
2016-09-26T05:20:25.207Z,58.01
2016-09-26T05:21:24.882Z,58.88
2016-09-26T05:22:25.166Z,57.98
2016-09-26T05:23:25.149Z,58.75
2016-09-26T05:24:25.142Z,58.78
2016-09-26T05:25:25.117Z,58.75
2016-09-26T05:26:25.097Z,58.75
2016-09-26T05:27:25.084Z,58.85
2016-09-26T05:28:25.076Z,58.47
2016-09-26T05:29:25.052Z,58.08
2016-09-26T05:30:25.036Z,58.17
2016-09-26T05:31:25.016Z,57.98
2016-09-26T05:32:25.005Z,58.37
2016-09-26T05:33:24.987Z,58.56
2016-09-26T05:34:24.966Z,58.37
2016-09-26T05:35:24.951Z,58.56
2016-09-26T05:36:24.937Z,58.47
2016-09-26T05:37:24.921Z,58.27
2016-09-26T05:38:24.604Z,57.98
2016-09-26T05:39:24.880Z,58.17
2016-09-26T05:40:24.877Z,58.56
2016-09-26T05:41:24.856Z,58.65
2016-09-26T05:42:24.834Z,58.85
2016-09-26T05:43:24.520Z,58.56
2016-09-26T05:44:24.800Z,58.75
2016-09-26T05:45:24.780Z,58.56
2016-09-26T05:46:24.770Z,58.75
2016-09-26T05:47:24.755Z,58.65
2016-09-26T05:48:24.743Z,58.37
2016-09-26T05:49:24.418Z,58.75
2016-09-26T05:50:24.701Z,58.47
2016-09-26T05:51:24.683Z,58.75
2016-09-26T05:52:24.668Z,58.75
2016-09-26T05:53:24.661Z,58.75
2016-09-26T05:54:24.637Z,58.75
2016-09-26T05:55:24.618Z,58.65
2016-09-26T05:56:24.605Z,58.75
2016-09-26T05:57:24.584Z,58.69
2016-09-26T05:58:24.570Z,58.65
2016-09-26T05:59:24.252Z,58.75
2016-09-26T06:00:24.538Z,58.75
2016-09-26T06:01:24.523Z,58.75
2016-09-26T06:02:24.507Z,58.75
2016-09-26T06:03:24.190Z,58.75
2016-09-26T06:04:24.467Z,58.75
2016-09-26T06:05:24.458Z,58.75
2016-09-26T06:06:24.443Z,58.78
2016-09-26T06:07:24.125Z,58.75
2016-09-26T06:08:24.402Z,58.75
2016-09-26T06:09:24.086Z,58.37
2016-09-26T06:10:24.369Z,58.37
2016-09-26T06:11:24.053Z,58.75
2016-09-26T06:12:24.337Z,58.85
2016-09-26T06:13:24.028Z,58.47
2016-09-26T06:14:24.311Z,58.37
2016-09-26T06:15:24.287Z,58.95
2016-09-26T06:16:24.272Z,58.65
2016-09-26T06:17:24.255Z,58.75
2016-09-26T06:18:24.238Z,58.56
2016-09-26T06:19:24.229Z,58.75
2016-09-26T06:20:24.211Z,58.27
2016-09-26T06:21:24.192Z,58.56
2016-09-26T06:22:23.873Z,58.56
2016-09-26T06:23:24.158Z,58.85
2016-09-26T06:24:24.138Z,58.56
2016-09-26T06:25:24.119Z,58.65
2016-09-26T06:26:24.105Z,58.56
2016-09-26T06:27:24.095Z,58.65
2016-09-26T06:28:24.082Z,58.65
2016-09-26T06:29:23.781Z,58.65
2016-09-26T06:30:24.041Z,58.56
2016-09-26T06:31:24.031Z,58.56
2016-09-26T06:32:24.009Z,58.47
2016-09-26T06:33:23.992Z,58.17
2016-09-26T06:34:23.971Z,58.27
2016-09-26T06:35:23.961Z,58.47
2016-09-26T06:36:23.640Z,58.56
2016-09-26T06:37:23.924Z,58.47
2016-09-26T06:38:23.908Z,58.47
2016-09-26T06:39:23.893Z,58.65
2016-09-26T06:40:23.575Z,58.37
2016-09-26T06:41:23.878Z,58.56
2016-09-26T06:42:23.841Z,58.47
2016-09-26T06:43:23.519Z,58.37
2016-09-26T06:44:23.804Z,58.56
2016-09-26T06:45:24.012Z,58.65
2016-09-26T06:46:23.780Z,58.47
2016-09-26T06:47:23.757Z,58.75
2016-09-26T06:48:23.743Z,58.47
2016-09-26T06:49:23.721Z,58.56
2016-09-26T06:50:23.705Z,58.65
2016-09-26T06:51:23.699Z,58.65
2016-09-26T06:52:23.673Z,58.56
2016-09-26T06:53:23.660Z,58.37
2016-09-26T06:54:23.642Z,58.37
2016-09-26T06:55:23.633Z,58.47
2016-09-26T06:56:23.610Z,58.75
2016-09-26T06:57:23.590Z,58.85
2016-09-26T06:58:23.274Z,58.75
2016-09-26T06:59:23.555Z,58.65
2016-09-26T07:00:23.550Z,58.65
2016-09-26T07:01:23.528Z,58.27
2016-09-26T07:02:23.506Z,58.56
2016-09-26T07:03:23.489Z,58.47
2016-09-26T07:04:23.472Z,58.56
2016-09-26T07:05:23.461Z,57.98
2016-09-26T07:06:23.444Z,58.08
2016-09-26T07:07:23.420Z,58.08
2016-09-26T07:08:23.113Z,58.17
2016-09-26T07:09:23.091Z,58.27
2016-09-26T07:10:23.078Z,58.08
2016-09-26T07:11:23.359Z,58.08
2016-09-26T07:12:23.341Z,58.37
2016-09-26T07:13:23.022Z,57.89
2016-09-26T07:14:23.307Z,57.89
2016-09-26T07:15:23.290Z,58.17
2016-09-26T07:16:23.271Z,58.17
2016-09-26T07:17:23.255Z,58.27
2016-09-26T07:18:23.241Z,58.17
2016-09-26T07:19:23.230Z,58.37
2016-09-26T07:20:22.905Z,57.89
2016-09-26T07:21:23.193Z,57.89
2016-09-26T07:22:23.195Z,57.79
2016-09-26T07:23:23.159Z,58.08
2016-09-26T07:24:23.141Z,57.89
2016-09-26T07:25:23.129Z,58.08
2016-09-26T07:26:23.104Z,57.98
2016-09-26T07:27:22.794Z,58.08
2016-09-26T07:28:23.073Z,58.17
2016-09-26T07:29:23.059Z,57.98
2016-09-26T07:30:23.043Z,58.08
2016-09-26T07:31:22.726Z,57.98
2016-09-26T07:32:23.010Z,57.6
2016-09-26T07:33:22.993Z,57.69
2016-09-26T07:34:22.975Z,57.6
2016-09-26T07:35:22.652Z,57.69
2016-09-26T07:36:22.940Z,57.5
2016-09-26T07:37:22.632Z,57.69
2016-09-26T07:38:22.911Z,57.98
2016-09-26T07:39:22.898Z,57.69
2016-09-26T07:40:22.883Z,57.6
2016-09-26T07:41:22.557Z,57.79
2016-09-26T07:42:22.841Z,57.6
2016-09-26T07:43:22.825Z,57.5
2016-09-26T07:44:22.509Z,57.6
2016-09-26T07:45:22.793Z,57.79
2016-09-26T07:46:22.774Z,57.79
2016-09-26T07:47:22.760Z,57.98
2016-09-26T07:48:22.744Z,57.89
2016-09-26T07:49:22.724Z,57.5
2016-09-26T07:50:22.711Z,57.79
2016-09-26T07:51:22.696Z,57.5
2016-09-26T07:52:22.679Z,57.98
2016-09-26T07:53:22.658Z,57.69
2016-09-26T07:54:22.639Z,57.98
2016-09-26T07:55:22.627Z,57.6
2016-09-26T07:56:22.606Z,57.69
2016-09-26T07:57:22.585Z,57.79
2016-09-26T07:58:22.575Z,57.6
2016-09-26T07:59:22.565Z,57.69
2016-09-26T08:00:22.547Z,57.69
2016-09-26T08:01:22.524Z,57.98
2016-09-26T08:02:22.508Z,58.08
2016-09-26T08:03:22.194Z,57.79
2016-09-26T08:04:22.482Z,57.98
2016-09-26T08:05:22.462Z,57.89
2016-09-26T08:06:22.444Z,57.98
2016-09-26T08:07:22.435Z,57.79
2016-09-26T08:08:22.415Z,57.89
2016-09-26T08:09:22.390Z,57.89
2016-09-26T08:10:22.379Z,57.89
2016-09-26T08:11:22.368Z,57.98
2016-09-26T08:12:22.344Z,58.08
2016-09-26T08:13:22.331Z,57.6
2016-09-26T08:14:22.010Z,57.43
2016-09-26T08:15:21.990Z,57.43
2016-09-26T08:16:22.295Z,57.43
2016-09-26T08:17:22.268Z,57.43
2016-09-26T08:18:22.240Z,57.62
2016-09-26T08:19:22.234Z,57.62
2016-09-26T08:20:21.903Z,57.92
2016-09-26T08:21:22.187Z,58.11
2016-09-26T08:22:22.174Z,58.2
2016-09-26T08:23:22.163Z,57.92
2016-09-26T08:24:22.147Z,58.01
2016-09-26T08:25:22.129Z,57.72
2016-09-26T08:26:21.811Z,57.92
2016-09-26T08:27:22.097Z,58.2
2016-09-26T08:28:21.775Z,57.92
2016-09-26T08:29:22.064Z,58.2
2016-09-26T08:30:22.039Z,58.04
2016-09-26T08:31:22.026Z,57.92
2016-09-26T08:32:22.013Z,57.94
2016-09-26T08:33:21.997Z,58.14
2016-09-26T08:34:21.983Z,57.92
2016-09-26T08:35:21.963Z,57.62
2016-09-26T08:36:21.942Z,58.04
2016-09-26T08:37:21.929Z,57.75
2016-09-26T08:38:21.927Z,57.85
2016-09-26T08:39:21.894Z,57.94
2016-09-26T08:40:21.875Z,58.33
2016-09-26T08:41:21.863Z,58.04
2016-09-26T08:42:21.561Z,57.94
2016-09-26T08:43:21.530Z,57.85
2016-09-26T08:44:21.810Z,57.94
2016-09-26T08:45:21.801Z,58.04
2016-09-26T08:46:21.779Z,57.94
2016-09-26T08:47:21.456Z,57.94
2016-09-26T08:48:21.747Z,58.14
2016-09-26T08:49:21.440Z,57.94
2016-09-26T08:50:21.711Z,58.14
2016-09-26T08:51:21.698Z,57.65
2016-09-26T08:52:21.684Z,57.46
2016-09-26T08:53:21.665Z,57.46
2016-09-26T08:54:21.652Z,57.65
2016-09-26T08:55:21.627Z,57.56
2016-09-26T08:56:21.617Z,57.46
2016-09-26T08:57:21.599Z,57.37
2016-09-26T08:58:21.579Z,57.46
2016-09-26T08:59:21.566Z,57.56
2016-09-26T09:00:21.547Z,57.37
2016-09-26T09:01:21.526Z,57.65
2016-09-26T09:02:21.519Z,57.46
2016-09-26T09:03:21.203Z,57.46
2016-09-26T09:04:21.535Z,57.46
2016-09-26T09:05:21.473Z,57.37
2016-09-26T09:06:21.450Z,57.46
2016-09-26T09:07:21.437Z,57.46
2016-09-26T09:08:21.419Z,57.56
2016-09-26T09:09:21.400Z,57.56
2016-09-26T09:10:21.386Z,57.75
2016-09-26T09:11:21.368Z,57.46
2016-09-26T09:12:21.358Z,57.37
2016-09-26T09:13:21.339Z,58.14
2016-09-26T09:14:21.320Z,57.85
2016-09-26T09:15:21.308Z,58.14
2016-09-26T09:16:21.284Z,57.75
2016-09-26T09:17:21.269Z,57.56
2016-09-26T09:18:21.248Z,57.56
2016-09-26T09:19:20.934Z,57.37
2016-09-26T09:20:21.217Z,57.56
2016-09-26T09:21:21.198Z,57.37
2016-09-26T09:22:20.890Z,57.56
2016-09-26T09:23:20.869Z,57.56
2016-09-26T09:24:21.155Z,57.75
2016-09-26T09:25:21.137Z,58.23
2016-09-26T09:26:21.130Z,58.23
2016-09-26T09:27:21.107Z,58.33
2016-09-26T09:28:21.092Z,58.23
2016-09-26T09:29:20.770Z,58.33
2016-09-26T09:30:21.063Z,57.37
2016-09-26T09:31:21.043Z,57.65
2016-09-26T09:32:21.030Z,57.85
2016-09-26T09:33:21.011Z,57.94
2016-09-26T09:34:20.995Z,57.75
2016-09-26T09:35:20.979Z,57.75
2016-09-26T09:36:20.957Z,57.56
2016-09-26T09:37:20.943Z,57.46
2016-09-26T09:38:20.948Z,57.46
2016-09-26T09:39:20.910Z,57.46
2016-09-26T09:40:20.898Z,57.56
2016-09-26T09:41:20.881Z,57.46
2016-09-26T09:42:20.866Z,57.46
2016-09-26T09:43:20.849Z,57.46
2016-09-26T09:44:20.831Z,57.37
2016-09-26T09:45:20.815Z,57.46
2016-09-26T09:46:20.795Z,57.68
2016-09-26T09:47:20.779Z,57.59
2016-09-26T09:48:20.769Z,57.46
2016-09-26T09:49:20.760Z,57.37
2016-09-26T09:50:20.731Z,57.56
2016-09-26T09:51:20.712Z,57.56
2016-09-26T09:52:20.718Z,57.59
2016-09-26T09:53:20.379Z,57.59
2016-09-26T09:54:20.680Z,57.46
2016-09-26T09:55:20.650Z,57.56
2016-09-26T09:56:20.636Z,57.46
2016-09-26T09:57:20.625Z,57.37
2016-09-26T09:58:20.603Z,57.46
2016-09-26T09:59:20.282Z,57.56
2016-09-26T10:00:20.569Z,57.49
2016-09-26T10:01:20.557Z,57.46
2016-09-26T10:02:20.233Z,57.49
2016-09-26T10:03:20.517Z,57.56
2016-09-26T10:04:20.202Z,57.46
2016-09-26T10:05:20.486Z,57.49
2016-09-26T10:06:20.472Z,57.65
2016-09-26T10:07:20.457Z,57.78
2016-09-26T10:08:20.442Z,57.59
2016-09-26T10:09:20.423Z,57.87
2016-09-26T10:10:20.406Z,57.46
2016-09-26T10:11:20.092Z,57.56
2016-09-26T10:12:20.374Z,57.85
2016-09-26T10:13:20.356Z,57.68
2016-09-26T10:14:20.342Z,57.65
2016-09-26T10:15:20.023Z,57.49
2016-09-26T10:16:20.306Z,57.46
2016-09-26T10:17:20.293Z,57.68
2016-09-26T10:18:20.276Z,57.39
2016-09-26T10:19:19.956Z,57.68
2016-09-26T10:20:20.244Z,57.39
2016-09-26T10:21:19.921Z,57.68
2016-09-26T10:22:20.213Z,57.78
2016-09-26T10:23:20.191Z,57.59
2016-09-26T10:24:20.174Z,57.49
2016-09-26T10:25:19.864Z,57.59
2016-09-26T10:26:20.142Z,57.59
2016-09-26T10:27:20.133Z,57.49
2016-09-26T10:28:19.810Z,57.68
2016-09-26T10:29:20.094Z,57.59
2016-09-26T10:30:20.081Z,57.59
2016-09-26T10:31:20.064Z,57.49
2016-09-26T10:32:19.745Z,57.68
2016-09-26T10:33:20.057Z,57.78
2016-09-26T10:34:20.013Z,57.2
2016-09-26T10:35:20.003Z,57.29
2016-09-26T10:36:19.980Z,57.01
2016-09-26T10:37:19.667Z,55.36
2016-09-26T10:38:19.649Z,53.53
2016-09-26T10:39:19.936Z,53.15
2016-09-26T10:40:19.918Z,52.76
2016-09-26T10:41:19.905Z,53.41
2016-09-26T10:42:19.886Z,52.45
2016-09-26T10:43:19.877Z,53.13
2016-09-26T10:44:19.850Z,52.64
2016-09-26T10:45:19.843Z,51.2
2016-09-26T10:46:19.520Z,51.41
2016-09-26T10:47:19.517Z,51.87
2016-09-26T10:48:19.787Z,51.48
2016-09-26T10:49:19.469Z,50.71
2016-09-26T10:50:19.753Z,50.81
2016-09-26T10:51:19.436Z,50.32
2016-09-26T10:52:19.426Z,50.42
2016-09-26T10:53:19.709Z,50.62
2016-09-26T10:54:19.694Z,51.2
2016-09-26T10:55:19.670Z,50.04
2016-09-26T10:56:19.655Z,50.13
2016-09-26T10:57:19.640Z,49.94
2016-09-26T10:58:19.625Z,49.94
2016-09-26T10:59:19.306Z,49.94
2016-09-26T11:00:19.591Z,50.62
2016-09-26T11:01:19.576Z,50.71
2016-09-26T11:02:19.568Z,50.13
2016-09-26T11:03:19.538Z,49.65
2016-09-26T11:04:19.525Z,49.46
2016-09-26T11:05:19.506Z,48.69
2016-09-26T11:06:19.500Z,48.79
2016-09-26T11:07:19.481Z,48.49
2016-09-26T11:08:19.154Z,48.4
2016-09-26T11:09:19.144Z,48.49
2016-09-26T11:10:19.426Z,48.18
2016-09-26T11:11:19.415Z,48.57
2016-09-26T11:12:19.397Z,48.49
2016-09-26T11:13:19.077Z,48.95
2016-09-26T11:14:19.359Z,49.24
2016-09-26T11:15:19.341Z,48.95
2016-09-26T11:16:19.326Z,49.43
2016-09-26T11:17:19.307Z,49.53
2016-09-26T11:18:19.292Z,49.43
2016-09-26T11:19:19.286Z,49.53
2016-09-26T11:20:19.258Z,49.53
2016-09-26T11:21:19.238Z,49.34
2016-09-26T11:22:19.233Z,49.34
2016-09-26T11:23:18.912Z,49.24
2016-09-26T11:24:19.245Z,48.57
2016-09-26T11:25:19.178Z,48.95
2016-09-26T11:26:19.165Z,49.34
2016-09-26T11:27:19.145Z,49.63
2016-09-26T11:28:19.128Z,49.82
2016-09-26T11:29:19.112Z,50.32
2016-09-26T11:30:19.091Z,50.62
2016-09-26T11:31:19.079Z,50.52
2016-09-26T11:32:18.759Z,50.81
2016-09-26T11:33:19.048Z,50.9
2016-09-26T11:34:19.027Z,50.71
2016-09-26T11:35:19.011Z,50.71
2016-09-26T11:36:19.003Z,51
2016-09-26T11:37:18.978Z,50.81
2016-09-26T11:38:18.668Z,50.62
2016-09-26T11:39:18.949Z,50.52
2016-09-26T11:40:18.630Z,50.32
2016-09-26T11:41:18.912Z,50.52
2016-09-26T11:42:18.903Z,50.32
2016-09-26T11:43:18.874Z,50.42
2016-09-26T11:44:18.861Z,50.42
2016-09-26T11:45:18.843Z,50.81
2016-09-26T11:46:18.824Z,50.71
2016-09-26T11:47:18.807Z,50.81
2016-09-26T11:48:18.793Z,50.71
2016-09-26T11:49:18.778Z,50.64
2016-09-26T11:50:18.758Z,50.9
2016-09-26T11:51:18.442Z,50.62
2016-09-26T11:52:18.730Z,51.2
2016-09-26T11:53:18.712Z,50.84
2016-09-26T11:54:18.693Z,50.9
2016-09-26T11:55:18.677Z,51.2
2016-09-26T11:56:18.662Z,51.22
2016-09-26T11:57:18.644Z,51.48
2016-09-26T11:58:18.634Z,51.39
2016-09-26T11:59:18.614Z,51.2
2016-09-26T12:00:18.597Z,51.32
2016-09-26T12:01:18.588Z,51.39
2016-09-26T12:02:18.566Z,51.51
2016-09-26T12:03:18.550Z,51.61
2016-09-26T12:04:18.530Z,51.39
2016-09-26T12:05:18.513Z,51.2
2016-09-26T12:06:18.497Z,51.39
2016-09-26T12:07:18.481Z,51.2
2016-09-26T12:08:18.461Z,51.58
2016-09-26T12:09:18.453Z,51.2
2016-09-26T12:10:18.441Z,51.22
2016-09-26T12:11:18.418Z,51.22
2016-09-26T12:12:18.399Z,51.29
2016-09-26T12:13:18.083Z,51.2
2016-09-26T12:14:18.368Z,51.22
2016-09-26T12:15:18.349Z,51.2
2016-09-26T12:16:18.339Z,51.32
2016-09-26T12:17:18.316Z,51.61
2016-09-26T12:18:18.307Z,52.19
2016-09-26T12:19:17.986Z,52.16
2016-09-26T12:20:18.275Z,52.19
2016-09-26T12:21:18.254Z,51.77
2016-09-26T12:22:18.241Z,52.09
2016-09-26T12:23:17.920Z,52.09
2016-09-26T12:24:18.221Z,51.7
2016-09-26T12:25:17.885Z,51.99
2016-09-26T12:26:18.176Z,51.51
2016-09-26T12:27:18.152Z,51.51
2016-09-26T12:28:18.148Z,51.99
2016-09-26T12:29:18.129Z,51.8
2016-09-26T12:30:17.813Z,51.8
2016-09-26T12:31:18.094Z,52.37
2016-09-26T12:32:17.772Z,52.28
2016-09-26T12:33:17.758Z,52.09
2016-09-26T12:34:17.748Z,52.28
2016-09-26T12:35:18.035Z,51.12
2016-09-26T12:36:18.011Z,51.41
2016-09-26T12:37:18.001Z,50.35
2016-09-26T12:38:17.980Z,51.03
2016-09-26T12:39:17.964Z,52.09
2016-09-26T12:40:17.639Z,51.99
2016-09-26T12:41:17.624Z,52.19
2016-09-26T12:42:17.916Z,51.8
2016-09-26T12:43:17.897Z,52.09
2016-09-26T12:44:17.880Z,50.64
2016-09-26T12:45:17.876Z,50.45
2016-09-26T12:46:17.851Z,50.64
2016-09-26T12:47:17.831Z,50.64
2016-09-26T12:48:17.814Z,50.54
2016-09-26T12:49:17.797Z,49.96
2016-09-26T12:50:17.789Z,49.87
2016-09-26T12:51:17.769Z,49.48
2016-09-26T12:52:17.752Z,49.87
2016-09-26T12:53:17.733Z,50.45
2016-09-26T12:54:17.421Z,50.16
2016-09-26T12:55:17.709Z,49.87